sensor_id;sensor_type;location;lat;lon;timestamp;P1;durP1;ratioP1;P2;durP2;ratioP2
64075;SDS011;50327;51.328;12.324;2023-04-25T00:02:19;6.63;;;2.90;;
64075;SDS011;50327;51.328;12.324;2023-04-25T00:04:45;9.10;;;3.90;;
64075;SDS011;50327;51.328;12.324;2023-04-25T00:07:11;9.45;;;3.80;;
64075;SDS011;50327;51.328;12.324;2023-04-25T00:09:36;8.60;;;3.78;;
64075;SDS011;50327;51.328;12.324;2023-04-25T00:12:01;11.93;;;4.50;;
64075;SDS011;50327;51.328;12.324;2023-04-25T00:14:27;8.02;;;3.53;;
64075;SDS011;50327;51.328;12.324;2023-04-25T00:16:52;7.97;;;3.90;;
64075;SDS011;50327;51.328;12.324;2023-04-25T00:19:19;8.90;;;4.28;;
64075;SDS011;50327;51.328;12.324;2023-04-25T00:21:44;11.48;;;4.20;;
64075;SDS011;50327;51.328;12.324;2023-04-25T00:24:11;9.88;;;4.38;;
64075;SDS011;50327;51.328;12.324;2023-04-25T00:26:36;8.55;;;4.00;;
64075;SDS011;50327;51.328;12.324;2023-04-25T00:29:01;9.35;;;4.20;;
64075;SDS011;50327;51.328;12.324;2023-04-25T00:31:27;8.85;;;4.00;;
64075;SDS011;50327;51.328;12.324;2023-04-25T00:33:53;11.30;;;4.18;;
64075;SDS011;50327;51.328;12.324;2023-04-25T00:36:19;8.90;;;4.35;;
64075;SDS011;50327;51.328;12.324;2023-04-25T00:38:44;11.18;;;4.25;;
64075;SDS011;50327;51.328;12.324;2023-04-25T00:41:09;10.25;;;4.43;;
64075;SDS011;50327;51.328;12.324;2023-04-25T00:43:36;8.15;;;4.13;;
64075;SDS011;50327;51.328;12.324;2023-04-25T00:46:01;10.10;;;3.88;;
64075;SDS011;50327;51.328;12.324;2023-04-25T00:48:26;12.45;;;4.57;;
64075;SDS011;50327;51.328;12.324;2023-04-25T00:50:57;7.72;;;3.97;;
64075;SDS011;50327;51.328;12.324;2023-04-25T00:53:23;11.57;;;4.55;;
64075;SDS011;50327;51.328;12.324;2023-04-25T00:55:49;6.38;;;3.40;;
64075;SDS011;50327;51.328;12.324;2023-04-25T00:58:16;10.68;;;4.07;;
64075;SDS011;50327;51.328;12.324;2023-04-25T01:00:41;9.18;;;4.20;;
64075;SDS011;50327;51.328;12.324;2023-04-25T01:03:06;11.07;;;4.50;;
64075;SDS011;50327;51.328;12.324;2023-04-25T01:05:32;7.32;;;3.83;;
64075;SDS011;50327;51.328;12.324;2023-04-25T01:07:57;12.30;;;4.40;;
64075;SDS011;50327;51.328;12.324;2023-04-25T01:10:23;8.55;;;4.68;;
64075;SDS011;50327;51.328;12.324;2023-04-25T01:12:48;9.75;;;4.45;;
64075;SDS011;50327;51.328;12.324;2023-04-25T01:15:14;10.75;;;4.32;;
64075;SDS011;50327;51.328;12.324;2023-04-25T01:17:40;9.32;;;4.22;;
64075;SDS011;50327;51.328;12.324;2023-04-25T01:20:05;8.07;;;3.72;;
64075;SDS011;50327;51.328;12.324;2023-04-25T01:22:32;11.38;;;4.05;;
64075;SDS011;50327;51.328;12.324;2023-04-25T01:24:57;12.20;;;4.50;;
64075;SDS011;50327;51.328;12.324;2023-04-25T01:27:23;12.30;;;3.95;;
64075;SDS011;50327;51.328;12.324;2023-04-25T01:29:48;9.52;;;3.17;;
64075;SDS011;50327;51.328;12.324;2023-04-25T01:32:14;9.95;;;4.10;;
64075;SDS011;50327;51.328;12.324;2023-04-25T01:34:40;10.65;;;3.85;;
64075;SDS011;50327;51.328;12.324;2023-04-25T01:37:05;10.50;;;4.25;;
64075;SDS011;50327;51.328;12.324;2023-04-25T01:39:30;9.02;;;3.78;;
64075;SDS011;50327;51.328;12.324;2023-04-25T01:41:55;11.32;;;3.92;;
64075;SDS011;50327;51.328;12.324;2023-04-25T01:44:21;10.73;;;4.68;;
64075;SDS011;50327;51.328;12.324;2023-04-25T01:46:46;10.88;;;4.07;;
64075;SDS011;50327;51.328;12.324;2023-04-25T01:49:12;11.10;;;3.95;;
64075;SDS011;50327;51.328;12.324;2023-04-25T01:51:37;10.48;;;3.75;;
64075;SDS011;50327;51.328;12.324;2023-04-25T01:54:02;8.10;;;4.45;;
64075;SDS011;50327;51.328;12.324;2023-04-25T01:56:31;7.75;;;4.35;;
64075;SDS011;50327;51.328;12.324;2023-04-25T01:58:56;9.90;;;4.25;;
64075;SDS011;50327;51.328;12.324;2023-04-25T02:01:22;10.35;;;4.07;;
64075;SDS011;50327;51.328;12.324;2023-04-25T02:03:47;14.23;;;4.28;;
64075;SDS011;50327;51.328;12.324;2023-04-25T02:06:12;9.43;;;4.15;;
64075;SDS011;50327;51.328;12.324;2023-04-25T02:08:38;11.00;;;4.70;;
64075;SDS011;50327;51.328;12.324;2023-04-25T02:11:03;7.63;;;3.60;;
64075;SDS011;50327;51.328;12.324;2023-04-25T02:13:28;11.13;;;4.00;;
64075;SDS011;50327;51.328;12.324;2023-04-25T02:15:53;10.75;;;3.97;;
64075;SDS011;50327;51.328;12.324;2023-04-25T02:18:19;11.50;;;3.80;;
64075;SDS011;50327;51.328;12.324;2023-04-25T02:20:45;10.35;;;3.83;;
64075;SDS011;50327;51.328;12.324;2023-04-25T02:23:11;8.95;;;3.42;;
64075;SDS011;50327;51.328;12.324;2023-04-25T02:25:36;14.60;;;3.88;;
64075;SDS011;50327;51.328;12.324;2023-04-25T02:28:01;6.63;;;3.45;;
64075;SDS011;50327;51.328;12.324;2023-04-25T02:30:26;7.95;;;4.13;;
64075;SDS011;50327;51.328;12.324;2023-04-25T02:32:52;8.32;;;3.40;;
64075;SDS011;50327;51.328;12.324;2023-04-25T02:35:17;10.02;;;3.30;;
64075;SDS011;50327;51.328;12.324;2023-04-25T02:37:42;7.60;;;3.63;;
64075;SDS011;50327;51.328;12.324;2023-04-25T02:40:08;8.50;;;3.25;;
64075;SDS011;50327;51.328;12.324;2023-04-25T02:42:33;10.50;;;3.72;;
64075;SDS011;50327;51.328;12.324;2023-04-25T02:44:59;11.52;;;4.28;;
64075;SDS011;50327;51.328;12.324;2023-04-25T02:47:24;8.93;;;4.38;;
64075;SDS011;50327;51.328;12.324;2023-04-25T02:49:49;8.45;;;4.15;;
64075;SDS011;50327;51.328;12.324;2023-04-25T02:52:14;8.02;;;3.95;;
64075;SDS011;50327;51.328;12.324;2023-04-25T02:54:40;14.25;;;4.35;;
64075;SDS011;50327;51.328;12.324;2023-04-25T02:57:05;13.35;;;4.38;;
64075;SDS011;50327;51.328;12.324;2023-04-25T02:59:31;8.55;;;4.05;;
64075;SDS011;50327;51.328;12.324;2023-04-25T03:01:56;8.52;;;3.60;;
64075;SDS011;50327;51.328;12.324;2023-04-25T03:04:21;10.85;;;3.90;;
64075;SDS011;50327;51.328;12.324;2023-04-25T03:06:48;11.80;;;4.28;;
64075;SDS011;50327;51.328;12.324;2023-04-25T03:09:14;10.05;;;4.03;;
64075;SDS011;50327;51.328;12.324;2023-04-25T03:11:39;10.23;;;4.03;;
64075;SDS011;50327;51.328;12.324;2023-04-25T03:14:05;8.98;;;4.30;;
64075;SDS011;50327;51.328;12.324;2023-04-25T03:16:30;10.10;;;3.95;;
64075;SDS011;50327;51.328;12.324;2023-04-25T03:18:56;10.32;;;4.40;;
64075;SDS011;50327;51.328;12.324;2023-04-25T03:21:21;9.18;;;4.00;;
64075;SDS011;50327;51.328;12.324;2023-04-25T03:23:46;12.10;;;4.38;;
64075;SDS011;50327;51.328;12.324;2023-04-25T03:26:11;14.80;;;4.40;;
64075;SDS011;50327;51.328;12.324;2023-04-25T03:28:37;6.32;;;3.08;;
64075;SDS011;50327;51.328;12.324;2023-04-25T03:31:02;8.60;;;4.18;;
64075;SDS011;50327;51.328;12.324;2023-04-25T03:33:27;9.02;;;4.18;;
64075;SDS011;50327;51.328;12.324;2023-04-25T03:35:52;11.68;;;4.45;;
64075;SDS011;50327;51.328;12.324;2023-04-25T03:38:18;8.27;;;3.80;;
64075;SDS011;50327;51.328;12.324;2023-04-25T03:40:43;12.35;;;4.78;;
64075;SDS011;50327;51.328;12.324;2023-04-25T03:43:08;11.38;;;4.78;;
64075;SDS011;50327;51.328;12.324;2023-04-25T03:45:33;9.52;;;4.00;;
64075;SDS011;50327;51.328;12.324;2023-04-25T03:47:59;8.75;;;4.35;;
64075;SDS011;50327;51.328;12.324;2023-04-25T03:50:24;9.88;;;3.88;;
64075;SDS011;50327;51.328;12.324;2023-04-25T03:52:49;11.60;;;4.22;;
64075;SDS011;50327;51.328;12.324;2023-04-25T03:55:15;10.60;;;4.05;;
64075;SDS011;50327;51.328;12.324;2023-04-25T03:57:40;11.25;;;5.05;;
64075;SDS011;50327;51.328;12.324;2023-04-25T04:00:05;15.48;;;5.20;;
64075;SDS011;50327;51.328;12.324;2023-04-25T04:02:31;13.65;;;4.95;;
64075;SDS011;50327;51.328;12.324;2023-04-25T04:04:58;10.82;;;4.65;;
64075;SDS011;50327;51.328;12.324;2023-04-25T04:07:23;9.75;;;4.85;;
64075;SDS011;50327;51.328;12.324;2023-04-25T04:09:48;15.52;;;5.30;;
64075;SDS011;50327;51.328;12.324;2023-04-25T04:12:13;16.40;;;4.90;;
64075;SDS011;50327;51.328;12.324;2023-04-25T04:14:38;14.32;;;6.07;;
64075;SDS011;50327;51.328;12.324;2023-04-25T04:17:04;14.45;;;6.78;;
64075;SDS011;50327;51.328;12.324;2023-04-25T04:19:30;17.65;;;6.10;;
64075;SDS011;50327;51.328;12.324;2023-04-25T04:21:56;19.38;;;5.85;;
64075;SDS011;50327;51.328;12.324;2023-04-25T04:24:21;13.30;;;6.43;;
64075;SDS011;50327;51.328;12.324;2023-04-25T04:26:46;16.83;;;6.25;;
64075;SDS011;50327;51.328;12.324;2023-04-25T04:29:11;13.05;;;6.55;;
64075;SDS011;50327;51.328;12.324;2023-04-25T04:31:45;16.00;;;6.30;;
64075;SDS011;50327;51.328;12.324;2023-04-25T04:34:10;15.48;;;6.43;;
64075;SDS011;50327;51.328;12.324;2023-04-25T04:36:35;17.58;;;6.30;;
64075;SDS011;50327;51.328;12.324;2023-04-25T04:39:01;12.48;;;5.38;;
64075;SDS011;50327;51.328;12.324;2023-04-25T04:41:28;16.30;;;6.18;;
64075;SDS011;50327;51.328;12.324;2023-04-25T04:43:53;12.57;;;5.45;;
64075;SDS011;50327;51.328;12.324;2023-04-25T04:46:20;15.35;;;6.22;;
64075;SDS011;50327;51.328;12.324;2023-04-25T04:48:46;10.43;;;5.63;;
64075;SDS011;50327;51.328;12.324;2023-04-25T04:51:12;21.25;;;6.80;;
64075;SDS011;50327;51.328;12.324;2023-04-25T04:53:37;11.07;;;5.43;;
64075;SDS011;50327;51.328;12.324;2023-04-25T04:56:02;15.40;;;6.72;;
64075;SDS011;50327;51.328;12.324;2023-04-25T04:58:27;15.60;;;5.53;;
64075;SDS011;50327;51.328;12.324;2023-04-25T05:00:54;14.48;;;5.95;;
64075;SDS011;50327;51.328;12.324;2023-04-25T05:03:20;17.35;;;6.00;;
64075;SDS011;50327;51.328;12.324;2023-04-25T05:05:45;18.55;;;6.85;;
64075;SDS011;50327;51.328;12.324;2023-04-25T05:08:11;19.08;;;6.35;;
64075;SDS011;50327;51.328;12.324;2023-04-25T05:10:36;14.40;;;6.60;;
64075;SDS011;50327;51.328;12.324;2023-04-25T05:13:01;17.42;;;6.38;;
64075;SDS011;50327;51.328;12.324;2023-04-25T05:15:26;15.38;;;6.28;;
64075;SDS011;50327;51.328;12.324;2023-04-25T05:17:52;15.00;;;6.15;;
64075;SDS011;50327;51.328;12.324;2023-04-25T05:20:17;16.70;;;5.57;;
64075;SDS011;50327;51.328;12.324;2023-04-25T05:22:44;18.23;;;6.18;;
64075;SDS011;50327;51.328;12.324;2023-04-25T05:25:09;17.60;;;5.63;;
64075;SDS011;50327;51.328;12.324;2023-04-25T05:27:34;15.20;;;6.15;;
64075;SDS011;50327;51.328;12.324;2023-04-25T05:30:00;19.00;;;5.88;;
64075;SDS011;50327;51.328;12.324;2023-04-25T05:32:25;19.67;;;6.15;;
64075;SDS011;50327;51.328;12.324;2023-04-25T05:34:51;15.23;;;5.10;;
64075;SDS011;50327;51.328;12.324;2023-04-25T05:37:17;12.43;;;5.25;;
64075;SDS011;50327;51.328;12.324;2023-04-25T05:39:42;22.33;;;5.63;;
64075;SDS011;50327;51.328;12.324;2023-04-25T05:42:07;9.85;;;5.25;;
64075;SDS011;50327;51.328;12.324;2023-04-25T05:44:32;16.63;;;5.82;;
64075;SDS011;50327;51.328;12.324;2023-04-25T05:46:57;16.30;;;5.28;;
64075;SDS011;50327;51.328;12.324;2023-04-25T05:49:23;12.48;;;4.85;;
64075;SDS011;50327;51.328;12.324;2023-04-25T05:51:48;20.33;;;5.47;;
64075;SDS011;50327;51.328;12.324;2023-04-25T05:54:13;15.95;;;5.40;;
64075;SDS011;50327;51.328;12.324;2023-04-25T05:56:39;13.48;;;5.60;;
64075;SDS011;50327;51.328;12.324;2023-04-25T05:59:04;10.65;;;5.07;;
64075;SDS011;50327;51.328;12.324;2023-04-25T06:01:29;13.50;;;6.07;;
64075;SDS011;50327;51.328;12.324;2023-04-25T06:03:55;15.52;;;5.88;;
64075;SDS011;50327;51.328;12.324;2023-04-25T06:06:20;14.05;;;5.75;;
64075;SDS011;50327;51.328;12.324;2023-04-25T06:08:45;10.80;;;4.53;;
64075;SDS011;50327;51.328;12.324;2023-04-25T06:11:11;14.73;;;5.53;;
64075;SDS011;50327;51.328;12.324;2023-04-25T06:13:36;15.00;;;5.35;;
64075;SDS011;50327;51.328;12.324;2023-04-25T06:16:01;13.65;;;5.65;;
64075;SDS011;50327;51.328;12.324;2023-04-25T06:18:26;9.82;;;4.80;;
64075;SDS011;50327;51.328;12.324;2023-04-25T06:20:52;10.15;;;4.70;;
64075;SDS011;50327;51.328;12.324;2023-04-25T06:23:17;15.00;;;6.05;;
64075;SDS011;50327;51.328;12.324;2023-04-25T06:25:42;10.45;;;5.63;;
64075;SDS011;50327;51.328;12.324;2023-04-25T06:28:07;15.50;;;5.57;;
64075;SDS011;50327;51.328;12.324;2023-04-25T06:30:33;12.15;;;4.85;;
64075;SDS011;50327;51.328;12.324;2023-04-25T06:32:58;10.00;;;4.80;;
64075;SDS011;50327;51.328;12.324;2023-04-25T06:35:23;13.00;;;4.93;;
64075;SDS011;50327;51.328;12.324;2023-04-25T06:37:48;13.13;;;4.95;;
64075;SDS011;50327;51.328;12.324;2023-04-25T06:40:14;15.90;;;5.63;;
64075;SDS011;50327;51.328;12.324;2023-04-25T06:42:39;9.05;;;4.65;;
64075;SDS011;50327;51.328;12.324;2023-04-25T06:45:05;11.90;;;4.40;;
64075;SDS011;50327;51.328;12.324;2023-04-25T06:47:30;10.73;;;4.57;;
64075;SDS011;50327;51.328;12.324;2023-04-25T06:49:55;20.27;;;4.55;;
64075;SDS011;50327;51.328;12.324;2023-04-25T06:52:21;9.30;;;4.40;;
64075;SDS011;50327;51.328;12.324;2023-04-25T06:54:46;11.88;;;5.13;;
64075;SDS011;50327;51.328;12.324;2023-04-25T06:57:11;14.88;;;5.07;;
64075;SDS011;50327;51.328;12.324;2023-04-25T06:59:36;17.00;;;5.13;;
64075;SDS011;50327;51.328;12.324;2023-04-25T07:02:02;9.32;;;4.90;;
64075;SDS011;50327;51.328;12.324;2023-04-25T07:04:27;14.35;;;5.10;;
64075;SDS011;50327;51.328;12.324;2023-04-25T07:06:52;14.50;;;4.88;;
64075;SDS011;50327;51.328;12.324;2023-04-25T07:09:17;15.88;;;4.88;;
64075;SDS011;50327;51.328;12.324;2023-04-25T07:11:43;16.70;;;5.72;;
64075;SDS011;50327;51.328;12.324;2023-04-25T07:14:08;13.15;;;5.30;;
64075;SDS011;50327;51.328;12.324;2023-04-25T07:16:33;14.13;;;4.70;;
64075;SDS011;50327;51.328;12.324;2023-04-25T07:18:58;12.38;;;5.68;;
64075;SDS011;50327;51.328;12.324;2023-04-25T07:21:24;15.38;;;6.10;;
64075;SDS011;50327;51.328;12.324;2023-04-25T07:23:50;13.00;;;5.32;;
64075;SDS011;50327;51.328;12.324;2023-04-25T07:26:15;15.07;;;5.28;;
64075;SDS011;50327;51.328;12.324;2023-04-25T07:28:41;15.68;;;5.05;;
64075;SDS011;50327;51.328;12.324;2023-04-25T07:31:06;13.52;;;4.80;;
64075;SDS011;50327;51.328;12.324;2023-04-25T07:33:31;16.83;;;5.70;;
64075;SDS011;50327;51.328;12.324;2023-04-25T07:35:57;15.40;;;5.28;;
64075;SDS011;50327;51.328;12.324;2023-04-25T07:38:22;13.60;;;5.85;;
64075;SDS011;50327;51.328;12.324;2023-04-25T07:40:48;16.83;;;6.03;;
64075;SDS011;50327;51.328;12.324;2023-04-25T07:43:13;12.65;;;6.03;;
64075;SDS011;50327;51.328;12.324;2023-04-25T07:45:41;12.00;;;5.57;;
64075;SDS011;50327;51.328;12.324;2023-04-25T07:48:07;12.45;;;5.10;;
64075;SDS011;50327;51.328;12.324;2023-04-25T07:50:32;8.48;;;4.95;;
64075;SDS011;50327;51.328;12.324;2023-04-25T07:52:59;10.63;;;5.15;;
64075;SDS011;50327;51.328;12.324;2023-04-25T07:55:24;15.05;;;5.55;;
64075;SDS011;50327;51.328;12.324;2023-04-25T07:57:49;17.95;;;4.97;;
64075;SDS011;50327;51.328;12.324;2023-04-25T08:00:15;10.10;;;4.63;;
64075;SDS011;50327;51.328;12.324;2023-04-25T08:02:40;12.73;;;4.65;;
64075;SDS011;50327;51.328;12.324;2023-04-25T08:05:05;11.85;;;3.95;;
64075;SDS011;50327;51.328;12.324;2023-04-25T08:07:33;13.20;;;4.55;;
64075;SDS011;50327;51.328;12.324;2023-04-25T08:09:58;14.05;;;4.57;;
64075;SDS011;50327;51.328;12.324;2023-04-25T08:12:23;7.75;;;2.95;;
64075;SDS011;50327;51.328;12.324;2023-04-25T08:14:48;12.32;;;2.72;;
64075;SDS011;50327;51.328;12.324;2023-04-25T08:17:14;5.57;;;2.00;;
64075;SDS011;50327;51.328;12.324;2023-04-25T08:19:40;6.05;;;2.13;;
64075;SDS011;50327;51.328;12.324;2023-04-25T08:22:05;12.55;;;2.35;;
64075;SDS011;50327;51.328;12.324;2023-04-25T08:24:30;8.85;;;2.20;;
64075;SDS011;50327;51.328;12.324;2023-04-25T08:26:55;7.78;;;2.20;;
64075;SDS011;50327;51.328;12.324;2023-04-25T08:29:21;9.90;;;1.73;;
64075;SDS011;50327;51.328;12.324;2023-04-25T08:31:48;8.93;;;2.10;;
64075;SDS011;50327;51.328;12.324;2023-04-25T08:34:13;10.82;;;2.13;;
64075;SDS011;50327;51.328;12.324;2023-04-25T08:36:38;12.32;;;2.53;;
64075;SDS011;50327;51.328;12.324;2023-04-25T08:39:04;8.63;;;2.33;;
64075;SDS011;50327;51.328;12.324;2023-04-25T08:41:29;6.53;;;1.80;;
64075;SDS011;50327;51.328;12.324;2023-04-25T08:43:55;8.52;;;1.80;;
64075;SDS011;50327;51.328;12.324;2023-04-25T08:46:21;12.13;;;3.45;;
64075;SDS011;50327;51.328;12.324;2023-04-25T08:48:46;8.02;;;2.63;;
64075;SDS011;50327;51.328;12.324;2023-04-25T08:51:15;14.77;;;2.35;;
64075;SDS011;50327;51.328;12.324;2023-04-25T08:53:42;10.15;;;2.30;;
64075;SDS011;50327;51.328;12.324;2023-04-25T08:56:08;11.18;;;2.78;;
64075;SDS011;50327;51.328;12.324;2023-04-25T08:58:34;9.20;;;1.80;;
64075;SDS011;50327;51.328;12.324;2023-04-25T09:01:00;10.05;;;2.60;;
64075;SDS011;50327;51.328;12.324;2023-04-25T09:03:26;6.05;;;1.98;;
64075;SDS011;50327;51.328;12.324;2023-04-25T09:05:51;10.45;;;1.98;;
64075;SDS011;50327;51.328;12.324;2023-04-25T09:08:17;18.13;;;2.20;;
64075;SDS011;50327;51.328;12.324;2023-04-25T09:10:42;7.35;;;2.15;;
64075;SDS011;50327;51.328;12.324;2023-04-25T09:13:11;8.48;;;1.80;;
64075;SDS011;50327;51.328;12.324;2023-04-25T09:15:49;7.68;;;2.50;;
64075;SDS011;50327;51.328;12.324;2023-04-25T09:18:25;15.45;;;2.80;;
64075;SDS011;50327;51.328;12.324;2023-04-25T09:20:51;9.70;;;2.30;;
64075;SDS011;50327;51.328;12.324;2023-04-25T09:23:17;10.38;;;2.28;;
64075;SDS011;50327;51.328;12.324;2023-04-25T09:25:44;15.95;;;3.22;;
64075;SDS011;50327;51.328;12.324;2023-04-25T09:28:11;9.55;;;2.63;;
64075;SDS011;50327;51.328;12.324;2023-04-25T09:30:37;10.88;;;2.30;;
64075;SDS011;50327;51.328;12.324;2023-04-25T09:33:05;7.90;;;2.08;;
64075;SDS011;50327;51.328;12.324;2023-04-25T09:35:35;14.13;;;2.72;;
64075;SDS011;50327;51.328;12.324;2023-04-25T09:40:25;10.63;;;2.38;;
64075;SDS011;50327;51.328;12.324;2023-04-25T09:42:51;9.82;;;2.90;;
64075;SDS011;50327;51.328;12.324;2023-04-25T09:45:16;10.77;;;3.17;;
64075;SDS011;50327;51.328;12.324;2023-04-25T09:47:42;10.27;;;2.50;;
64075;SDS011;50327;51.328;12.324;2023-04-25T09:50:15;17.75;;;2.78;;
64075;SDS011;50327;51.328;12.324;2023-04-25T09:52:41;13.13;;;2.67;;
64075;SDS011;50327;51.328;12.324;2023-04-25T09:55:06;13.10;;;2.67;;
64075;SDS011;50327;51.328;12.324;2023-04-25T09:57:31;13.05;;;2.60;;
64075;SDS011;50327;51.328;12.324;2023-04-25T09:59:57;13.60;;;3.15;;
64075;SDS011;50327;51.328;12.324;2023-04-25T10:02:25;11.48;;;3.42;;
64075;SDS011;50327;51.328;12.324;2023-04-25T10:04:52;12.30;;;3.95;;
64075;SDS011;50327;51.328;12.324;2023-04-25T10:07:19;14.57;;;3.65;;
64075;SDS011;50327;51.328;12.324;2023-04-25T10:09:47;15.35;;;3.60;;
64075;SDS011;50327;51.328;12.324;2023-04-25T10:12:12;12.98;;;4.07;;
64075;SDS011;50327;51.328;12.324;2023-04-25T10:14:38;19.23;;;3.78;;
64075;SDS011;50327;51.328;12.324;2023-04-25T10:17:04;11.52;;;4.50;;
64075;SDS011;50327;51.328;12.324;2023-04-25T10:19:30;14.40;;;4.53;;
64075;SDS011;50327;51.328;12.324;2023-04-25T10:21:58;18.13;;;3.67;;
64075;SDS011;50327;51.328;12.324;2023-04-25T10:24:27;18.55;;;4.32;;
64075;SDS011;50327;51.328;12.324;2023-04-25T10:26:53;26.35;;;3.95;;
64075;SDS011;50327;51.328;12.324;2023-04-25T10:29:22;19.80;;;4.25;;
64075;SDS011;50327;51.328;12.324;2023-04-25T10:31:49;15.15;;;4.07;;
64075;SDS011;50327;51.328;12.324;2023-04-25T10:34:15;14.45;;;4.65;;
64075;SDS011;50327;51.328;12.324;2023-04-25T10:36:40;18.95;;;3.80;;
64075;SDS011;50327;51.328;12.324;2023-04-25T10:39:06;19.63;;;4.43;;
64075;SDS011;50327;51.328;12.324;2023-04-25T10:41:47;12.73;;;5.03;;
64075;SDS011;50327;51.328;12.324;2023-04-25T10:44:13;15.77;;;3.65;;
64075;SDS011;50327;51.328;12.324;2023-04-25T10:46:38;19.65;;;3.92;;
64075;SDS011;50327;51.328;12.324;2023-04-25T10:49:04;18.00;;;4.57;;
64075;SDS011;50327;51.328;12.324;2023-04-25T10:51:32;17.90;;;4.13;;
64075;SDS011;50327;51.328;12.324;2023-04-25T10:53:59;15.23;;;4.13;;
64075;SDS011;50327;51.328;12.324;2023-04-25T10:58:50;13.77;;;4.05;;
64075;SDS011;50327;51.328;12.324;2023-04-25T11:01:15;18.95;;;4.18;;
64075;SDS011;50327;51.328;12.324;2023-04-25T11:03:44;19.90;;;4.63;;
64075;SDS011;50327;51.328;12.324;2023-04-25T11:06:23;15.85;;;4.22;;
64075;SDS011;50327;51.328;12.324;2023-04-25T11:08:51;22.58;;;4.53;;
64075;SDS011;50327;51.328;12.324;2023-04-25T11:11:19;23.02;;;4.30;;
64075;SDS011;50327;51.328;12.324;2023-04-25T11:13:47;12.63;;;4.03;;
64075;SDS011;50327;51.328;12.324;2023-04-25T11:16:13;13.48;;;3.83;;
64075;SDS011;50327;51.328;12.324;2023-04-25T11:18:40;17.75;;;5.32;;
64075;SDS011;50327;51.328;12.324;2023-04-25T11:21:05;13.05;;;3.42;;
64075;SDS011;50327;51.328;12.324;2023-04-25T11:23:31;12.95;;;3.35;;
64075;SDS011;50327;51.328;12.324;2023-04-25T11:25:56;17.83;;;3.22;;
64075;SDS011;50327;51.328;12.324;2023-04-25T11:28:22;13.80;;;3.47;;
64075;SDS011;50327;51.328;12.324;2023-04-25T11:30:51;15.00;;;3.08;;
64075;SDS011;50327;51.328;12.324;2023-04-25T11:33:16;15.25;;;3.60;;
64075;SDS011;50327;51.328;12.324;2023-04-25T11:35:42;13.50;;;3.72;;
64075;SDS011;50327;51.328;12.324;2023-04-25T11:38:07;18.38;;;3.97;;
64075;SDS011;50327;51.328;12.324;2023-04-25T11:40:32;6.90;;;2.92;;
64075;SDS011;50327;51.328;12.324;2023-04-25T11:42:59;12.23;;;2.60;;
64075;SDS011;50327;51.328;12.324;2023-04-25T11:45:24;15.48;;;2.53;;
64075;SDS011;50327;51.328;12.324;2023-04-25T11:47:50;8.85;;;2.50;;
64075;SDS011;50327;51.328;12.324;2023-04-25T11:50:15;20.60;;;3.30;;
64075;SDS011;50327;51.328;12.324;2023-04-25T11:52:46;13.32;;;1.95;;
64075;SDS011;50327;51.328;12.324;2023-04-25T11:55:13;12.27;;;2.50;;
64075;SDS011;50327;51.328;12.324;2023-04-25T11:57:38;13.90;;;3.22;;
64075;SDS011;50327;51.328;12.324;2023-04-25T12:00:05;11.40;;;2.17;;
64075;SDS011;50327;51.328;12.324;2023-04-25T12:02:31;11.45;;;2.65;;
64075;SDS011;50327;51.328;12.324;2023-04-25T12:04:58;14.38;;;2.47;;
64075;SDS011;50327;51.328;12.324;2023-04-25T12:07:28;17.27;;;2.90;;
64075;SDS011;50327;51.328;12.324;2023-04-25T12:09:53;8.70;;;1.95;;
64075;SDS011;50327;51.328;12.324;2023-04-25T12:12:19;15.43;;;2.65;;
64075;SDS011;50327;51.328;12.324;2023-04-25T12:14:46;13.23;;;2.38;;
64075;SDS011;50327;51.328;12.324;2023-04-25T12:17:12;11.82;;;2.10;;
64075;SDS011;50327;51.328;12.324;2023-04-25T12:19:37;5.57;;;1.77;;
64075;SDS011;50327;51.328;12.324;2023-04-25T12:22:18;7.72;;;2.60;;
64075;SDS011;50327;51.328;12.324;2023-04-25T12:24:44;7.90;;;2.15;;
64075;SDS011;50327;51.328;12.324;2023-04-25T12:27:09;10.82;;;2.47;;
64075;SDS011;50327;51.328;12.324;2023-04-25T12:29:35;14.15;;;3.08;;
64075;SDS011;50327;51.328;12.324;2023-04-25T12:32:00;16.23;;;2.30;;
64075;SDS011;50327;51.328;12.324;2023-04-25T12:34:27;10.23;;;2.67;;
64075;SDS011;50327;51.328;12.324;2023-04-25T12:36:52;9.85;;;2.33;;
64075;SDS011;50327;51.328;12.324;2023-04-25T12:39:18;17.05;;;2.67;;
64075;SDS011;50327;51.328;12.324;2023-04-25T12:41:44;11.35;;;3.47;;
64075;SDS011;50327;51.328;12.324;2023-04-25T12:44:10;30.50;;;5.30;;
64075;SDS011;50327;51.328;12.324;2023-04-25T12:46:36;10.88;;;2.70;;
64075;SDS011;50327;51.328;12.324;2023-04-25T12:49:01;11.13;;;2.22;;
64075;SDS011;50327;51.328;12.324;2023-04-25T12:51:28;14.93;;;2.35;;
64075;SDS011;50327;51.328;12.324;2023-04-25T12:53:53;16.92;;;4.00;;
64075;SDS011;50327;51.328;12.324;2023-04-25T12:56:19;11.05;;;3.40;;
64075;SDS011;50327;51.328;12.324;2023-04-25T12:58:44;13.80;;;2.38;;
64075;SDS011;50327;51.328;12.324;2023-04-25T13:01:09;7.70;;;1.92;;
64075;SDS011;50327;51.328;12.324;2023-04-25T13:03:34;9.00;;;2.45;;
64075;SDS011;50327;51.328;12.324;2023-04-25T13:06:00;10.10;;;2.33;;
64075;SDS011;50327;51.328;12.324;2023-04-25T13:08:25;19.20;;;2.05;;
64075;SDS011;50327;51.328;12.324;2023-04-25T13:10:51;8.23;;;1.70;;
64075;SDS011;50327;51.328;12.324;2023-04-25T13:13:16;7.30;;;1.35;;
64075;SDS011;50327;51.328;12.324;2023-04-25T13:15:42;7.18;;;1.48;;
64075;SDS011;50327;51.328;12.324;2023-04-25T13:18:07;5.85;;;1.90;;
64075;SDS011;50327;51.328;12.324;2023-04-25T13:20:32;5.53;;;1.27;;
64075;SDS011;50327;51.328;12.324;2023-04-25T13:22:58;5.07;;;1.55;;
64075;SDS011;50327;51.328;12.324;2023-04-25T13:25:23;12.32;;;1.80;;
64075;SDS011;50327;51.328;12.324;2023-04-25T13:27:48;15.40;;;2.70;;
64075;SDS011;50327;51.328;12.324;2023-04-25T13:30:13;9.88;;;1.70;;
64075;SDS011;50327;51.328;12.324;2023-04-25T13:32:39;12.13;;;2.17;;
64075;SDS011;50327;51.328;12.324;2023-04-25T13:35:05;15.65;;;1.60;;
64075;SDS011;50327;51.328;12.324;2023-04-25T13:37:30;9.38;;;1.60;;
64075;SDS011;50327;51.328;12.324;2023-04-25T13:39:58;6.18;;;1.83;;
64075;SDS011;50327;51.328;12.324;2023-04-25T13:42:23;9.18;;;2.55;;
64075;SDS011;50327;51.328;12.324;2023-04-25T13:44:49;6.93;;;1.80;;
64075;SDS011;50327;51.328;12.324;2023-04-25T13:47:14;5.03;;;1.60;;
64075;SDS011;50327;51.328;12.324;2023-04-25T13:49:39;11.32;;;1.75;;
64075;SDS011;50327;51.328;12.324;2023-04-25T13:52:04;6.97;;;1.88;;
64075;SDS011;50327;51.328;12.324;2023-04-25T13:54:31;14.77;;;1.73;;
64075;SDS011;50327;51.328;12.324;2023-04-25T13:56:56;6.93;;;1.58;;
64075;SDS011;50327;51.328;12.324;2023-04-25T13:59:24;11.10;;;2.22;;
64075;SDS011;50327;51.328;12.324;2023-04-25T14:01:49;8.48;;;2.03;;
64075;SDS011;50327;51.328;12.324;2023-04-25T14:04:14;6.57;;;1.92;;
64075;SDS011;50327;51.328;12.324;2023-04-25T14:06:40;17.92;;;2.45;;
64075;SDS011;50327;51.328;12.324;2023-04-25T14:09:06;6.53;;;1.80;;
64075;SDS011;50327;51.328;12.324;2023-04-25T14:11:35;12.88;;;2.25;;
64075;SDS011;50327;51.328;12.324;2023-04-25T14:14:00;14.10;;;1.77;;
64075;SDS011;50327;51.328;12.324;2023-04-25T14:16:25;6.40;;;1.75;;
64075;SDS011;50327;51.328;12.324;2023-04-25T14:18:50;7.55;;;1.50;;
64075;SDS011;50327;51.328;12.324;2023-04-25T14:21:16;11.25;;;1.73;;
64075;SDS011;50327;51.328;12.324;2023-04-25T14:23:41;4.97;;;1.35;;